createdAt,value
2023-05-06T00:02:20.540Z,9.40
2023-05-06T00:04:48.445Z,9.50
2023-05-06T00:07:17.068Z,9.60
2023-05-06T00:09:44.843Z,9.80
2023-05-06T00:12:12.559Z,9.90
2023-05-06T00:14:40.633Z,9.90
2023-05-06T00:17:08.481Z,10.00
2023-05-06T00:19:36.174Z,9.90
2023-05-06T00:22:03.920Z,10.00
2023-05-06T00:24:31.578Z,10.00
2023-05-06T00:26:59.288Z,10.00
2023-05-06T00:29:27.081Z,9.90
2023-05-06T00:31:54.860Z,10.00
2023-05-06T00:34:22.594Z,10.10
2023-05-06T00:36:50.859Z,10.20
2023-05-06T00:39:18.658Z,10.10
2023-05-06T00:41:46.319Z,10.10
2023-05-06T00:44:14.110Z,10.20
2023-05-06T00:46:43.582Z,10.20
2023-05-06T00:49:12.839Z,10.30
2023-05-06T00:51:41.055Z,10.50
2023-05-06T00:54:09.389Z,10.60
2023-05-06T00:56:37.803Z,10.60
2023-05-06T00:59:05.724Z,10.70
2023-05-06T01:01:33.767Z,10.90
2023-05-06T01:04:01.744Z,11.00
2023-05-06T01:06:38.442Z,11.00
2023-05-06T01:09:15.204Z,11.10
2023-05-06T01:11:51.131Z,11.10
2023-05-06T01:14:41.532Z,11.10
2023-05-06T01:17:11.898Z,10.90
2023-05-06T01:19:49.089Z,10.80
2023-05-06T01:22:17.177Z,10.70
2023-05-06T01:24:46.950Z,10.70
2023-05-06T01:27:16.835Z,10.70
2023-05-06T01:29:48.073Z,10.70
2023-05-06T01:32:24.648Z,10.70
2023-05-06T01:35:05.223Z,10.60
2023-05-06T01:37:55.180Z,10.60
2023-05-06T01:40:26.313Z,10.50
2023-05-06T01:42:55.332Z,10.50
2023-05-06T01:45:27.839Z,10.50
2023-05-06T01:47:56.972Z,10.60
2023-05-06T01:50:25.759Z,10.60
2023-05-06T01:53:01.440Z,10.40
2023-05-06T01:55:29.679Z,10.30
2023-05-06T01:57:57.448Z,10.30
2023-05-06T02:00:26.486Z,10.20
2023-05-06T02:02:54.427Z,10.30
2023-05-06T02:05:22.658Z,10.30
2023-05-06T02:07:54.790Z,10.30
2023-05-06T02:10:22.616Z,10.20
2023-05-06T02:12:57.497Z,10.20
2023-05-06T02:15:25.306Z,10.20
2023-05-06T02:17:53.383Z,10.10
2023-05-06T02:20:21.253Z,10.10
2023-05-06T02:22:49.002Z,10.10
2023-05-06T02:25:17.029Z,10.10
2023-05-06T02:27:46.402Z,10.10
2023-05-06T02:30:14.818Z,10.10
2023-05-06T02:32:42.589Z,10.10
2023-05-06T02:35:10.838Z,10.20
2023-05-06T02:37:38.785Z,10.20
2023-05-06T02:40:07.148Z,10.20
2023-05-06T02:42:35.829Z,10.10
2023-05-06T02:45:03.958Z,10.20
2023-05-06T02:47:33.400Z,10.20
2023-05-06T02:50:01.183Z,10.20
2023-05-06T02:52:28.880Z,10.10
2023-05-06T02:54:56.623Z,10.10
2023-05-06T02:57:24.450Z,10.20
2023-05-06T02:59:52.260Z,10.20
2023-05-06T03:02:20.026Z,10.20
2023-05-06T03:04:47.716Z,10.10
2023-05-06T03:07:15.554Z,10.10
2023-05-06T03:09:44.849Z,10.10
2023-05-06T03:12:12.790Z,10.00
2023-05-06T03:14:40.712Z,10.10
2023-05-06T03:17:08.480Z,10.10
2023-05-06T03:19:37.748Z,10.10
2023-05-06T03:22:07.339Z,10.00
2023-05-06T03:24:38.231Z,10.00
2023-05-06T03:27:07.389Z,10.10
2023-05-06T03:29:35.222Z,10.00
2023-05-06T03:32:04.198Z,10.10
2023-05-06T03:34:36.428Z,10.10
2023-05-06T03:37:04.321Z,10.10
2023-05-06T03:39:32.055Z,10.00
2023-05-06T03:42:02.413Z,10.10
2023-05-06T03:44:30.322Z,10.10
2023-05-06T03:46:58.658Z,10.00
2023-05-06T03:49:26.957Z,10.00
2023-05-06T03:51:54.736Z,10.00
2023-05-06T03:54:24.689Z,10.10
2023-05-06T03:56:52.606Z,10.10
2023-05-06T03:59:20.341Z,10.10
2023-05-06T04:01:48.241Z,10.00
2023-05-06T04:04:16.967Z,10.10
2023-05-06T04:06:45.068Z,10.10
2023-05-06T04:09:13.412Z,10.10
2023-05-06T04:11:41.595Z,10.00
2023-05-06T04:14:11.767Z,10.00
2023-05-06T04:16:39.557Z,10.00
2023-05-06T04:19:08.386Z,10.00
2023-05-06T04:21:37.078Z,10.00
2023-05-06T04:24:09.526Z,10.00
2023-05-06T04:26:39.909Z,10.10
2023-05-06T04:29:09.780Z,10.10
2023-05-06T04:31:44.568Z,10.10
2023-05-06T04:34:13.750Z,10.10
2023-05-06T04:36:41.962Z,10.10
2023-05-06T04:39:18.267Z,10.10
2023-05-06T04:41:46.907Z,10.20
2023-05-06T04:44:19.851Z,10.20
2023-05-06T04:46:48.679Z,10.20
2023-05-06T04:49:17.766Z,10.10
2023-05-06T04:51:45.838Z,10.20
2023-05-06T04:54:14.245Z,10.20
2023-05-06T04:56:42.044Z,10.30
2023-05-06T04:59:11.785Z,10.10
2023-05-06T05:01:40.835Z,10.20
2023-05-06T05:04:10.058Z,10.20
2023-05-06T05:06:37.906Z,10.20
2023-05-06T05:09:05.684Z,10.20
2023-05-06T05:11:33.861Z,10.20
2023-05-06T05:14:02.386Z,10.30
2023-05-06T05:16:31.799Z,10.30
2023-05-06T05:19:03.316Z,10.30
2023-05-06T05:21:33.519Z,10.40
2023-05-06T05:24:01.908Z,10.40
2023-05-06T05:26:30.501Z,10.50
2023-05-06T05:29:00.281Z,10.50
2023-05-06T05:31:31.384Z,10.50
2023-05-06T05:33:59.472Z,10.60
2023-05-06T05:36:28.032Z,10.70
2023-05-06T05:38:57.324Z,10.70
2023-05-06T05:41:27.461Z,10.80
2023-05-06T05:43:56.276Z,10.80
2023-05-06T05:46:24.551Z,10.90
2023-05-06T05:48:52.924Z,11.00
2023-05-06T05:51:22.999Z,11.20
2023-05-06T05:53:52.642Z,11.50
2023-05-06T05:56:23.829Z,11.60
2023-05-06T05:58:51.707Z,11.60
2023-05-06T06:01:19.699Z,11.80
2023-05-06T06:03:48.064Z,11.70
2023-05-06T06:06:16.006Z,11.80
2023-05-06T06:08:44.282Z,11.70
2023-05-06T06:11:14.535Z,11.90
2023-05-06T06:13:42.627Z,12.00
2023-05-06T06:16:11.465Z,12.10
2023-05-06T06:18:39.292Z,12.20
2023-05-06T06:21:07.036Z,12.10
2023-05-06T06:23:36.154Z,12.30
2023-05-06T06:26:04.733Z,12.20
2023-05-06T06:28:33.895Z,12.20
2023-05-06T06:31:02.097Z,12.40
2023-05-06T06:33:30.490Z,12.40
2023-05-06T06:35:58.511Z,12.40
2023-05-06T06:38:26.329Z,12.70
2023-05-06T06:40:54.244Z,12.60
2023-05-06T06:43:22.764Z,12.70
2023-05-06T06:45:56.950Z,12.80
2023-05-06T06:48:24.932Z,12.80
2023-05-06T06:50:52.592Z,12.80
2023-05-06T06:53:20.960Z,12.80
2023-05-06T06:55:48.685Z,12.90
2023-05-06T06:58:16.405Z,12.90
2023-05-06T07:00:44.806Z,13.00
2023-05-06T07:03:15.925Z,13.00
2023-05-06T07:05:48.274Z,13.10
2023-05-06T07:08:17.403Z,13.20
2023-05-06T07:10:45.417Z,13.30
2023-05-06T07:13:13.190Z,13.30
2023-05-06T07:15:41.174Z,13.40
2023-05-06T07:18:09.809Z,13.30
2023-05-06T07:20:39.684Z,13.30
2023-05-06T07:23:07.431Z,13.20
2023-05-06T07:25:35.479Z,13.30
2023-05-06T07:28:03.545Z,13.30
2023-05-06T07:30:31.358Z,13.40
2023-05-06T07:33:02.213Z,13.60
2023-05-06T07:35:30.144Z,13.90
2023-05-06T07:37:57.898Z,14.20
2023-05-06T07:40:26.005Z,14.60
2023-05-06T07:42:53.632Z,15.00
2023-05-06T07:45:23.870Z,15.40
2023-05-06T07:47:51.973Z,15.20
2023-05-06T07:50:20.338Z,15.50
2023-05-06T07:52:50.411Z,15.90
2023-05-06T07:55:18.460Z,16.30
2023-05-06T07:57:46.276Z,16.50
2023-05-06T08:00:14.418Z,16.80
2023-05-06T08:02:44.948Z,16.60
2023-05-06T08:05:13.833Z,16.80
2023-05-06T08:07:42.376Z,16.90
2023-05-06T08:10:10.717Z,16.80
2023-05-06T08:12:38.627Z,16.90
2023-05-06T08:15:07.147Z,17.20
2023-05-06T08:17:34.885Z,17.40
2023-05-06T08:20:02.789Z,17.50
2023-05-06T08:22:30.500Z,17.90
2023-05-06T08:24:58.790Z,17.90
2023-05-06T08:27:26.617Z,17.70
2023-05-06T08:29:54.387Z,18.00
2023-05-06T08:32:22.921Z,18.40
2023-05-06T08:34:50.643Z,18.50
2023-05-06T08:37:18.326Z,18.40
2023-05-06T08:39:46.123Z,18.90
2023-05-06T08:42:13.797Z,18.60
2023-05-06T08:44:44.177Z,19.20
2023-05-06T08:47:12.099Z,19.40
2023-05-06T08:49:40.225Z,19.50
2023-05-06T08:52:08.668Z,20.30
2023-05-06T08:54:36.615Z,20.50
2023-05-06T08:57:12.528Z,21.00
2023-05-06T08:59:41.669Z,20.90
2023-05-06T09:02:11.518Z,21.20
2023-05-06T09:04:40.323Z,21.00
2023-05-06T09:07:08.646Z,21.20
2023-05-06T09:09:36.637Z,21.20
2023-05-06T09:12:05.874Z,21.40
2023-05-06T09:14:33.624Z,21.80
2023-05-06T09:17:01.419Z,22.00
2023-05-06T09:19:29.430Z,22.10
2023-05-06T09:21:57.377Z,23.30
2023-05-06T09:24:25.494Z,22.80
2023-05-06T09:26:55.995Z,22.30
2023-05-06T09:29:24.080Z,22.60
2023-05-06T09:31:54.202Z,22.20
2023-05-06T09:34:22.725Z,22.30
2023-05-06T09:36:53.683Z,22.20
2023-05-06T09:39:26.643Z,21.80
2023-05-06T09:41:54.858Z,21.40
2023-05-06T09:44:24.611Z,21.60
2023-05-06T09:46:52.488Z,21.60
2023-05-06T09:49:22.672Z,22.00
2023-05-06T09:51:53.424Z,21.90
2023-05-06T09:54:22.006Z,22.70
2023-05-06T09:56:52.494Z,22.60
2023-05-06T09:59:21.167Z,21.80
2023-05-06T10:01:49.514Z,21.40
2023-05-06T10:04:18.493Z,20.90
2023-05-06T10:06:49.865Z,20.80
2023-05-06T10:09:18.653Z,20.90
2023-05-06T10:11:47.772Z,20.50
2023-05-06T10:14:15.944Z,20.30
2023-05-06T10:16:44.082Z,20.20
2023-05-06T10:19:14.332Z,19.90
2023-05-06T10:21:47.180Z,19.70
2023-05-06T10:24:23.590Z,19.30
2023-05-06T10:26:55.069Z,19.00
2023-05-06T10:29:26.944Z,18.90
2023-05-06T10:31:57.239Z,18.90
2023-05-06T10:34:26.434Z,18.80
2023-05-06T10:36:57.658Z,19.00
2023-05-06T10:39:26.653Z,18.90
2023-05-06T10:41:55.548Z,18.90
2023-05-06T10:45:05.119Z,19.20
2023-05-06T10:47:57.849Z,19.40
2023-05-06T10:50:27.353Z,19.30
2023-05-06T10:52:57.427Z,19.30
2023-05-06T10:55:36.527Z,19.10
2023-05-06T10:58:15.036Z,19.10
2023-05-06T11:00:52.848Z,19.30
2023-05-06T11:03:24.007Z,19.40
2023-05-06T11:05:52.767Z,19.40
2023-05-06T11:08:25.658Z,19.30
2023-05-06T11:10:54.326Z,19.20
2023-05-06T11:13:25.383Z,19.40
2023-05-06T11:15:54.499Z,19.40
2023-05-06T11:18:28.151Z,19.20
2023-05-06T11:21:02.676Z,19.10
2023-05-06T11:23:42.920Z,19.20
2023-05-06T11:26:11.978Z,19.30
2023-05-06T11:28:43.016Z,19.50
2023-05-06T11:31:13.551Z,19.70
2023-05-06T11:33:50.393Z,20.00
2023-05-06T11:36:19.528Z,20.10
2023-05-06T11:38:49.614Z,20.10
2023-05-06T11:41:17.928Z,20.10
2023-05-06T11:43:50.835Z,20.20
2023-05-06T11:46:22.892Z,20.20
2023-05-06T11:48:51.077Z,20.10
2023-05-06T11:51:25.538Z,20.20
2023-05-06T11:54:04.006Z,20.30
2023-05-06T11:56:41.869Z,20.10
2023-05-06T11:59:09.750Z,19.80
2023-05-06T12:01:37.684Z,19.90
2023-05-06T12:04:06.002Z,20.00
2023-05-06T12:06:38.189Z,20.20
2023-05-06T12:09:08.057Z,20.50
2023-05-06T12:11:36.369Z,21.90
2023-05-06T12:14:06.888Z,23.10
2023-05-06T12:16:36.589Z,23.00
2023-05-06T12:19:05.975Z,23.70
2023-05-06T12:21:38.248Z,23.70
2023-05-06T12:24:06.804Z,22.70
2023-05-06T12:26:46.174Z,22.20
2023-05-06T12:29:18.296Z,21.60
2023-05-06T12:31:49.819Z,20.80
2023-05-06T12:34:18.597Z,21.20
2023-05-06T12:36:48.425Z,21.80
2023-05-06T12:39:16.457Z,22.10
2023-05-06T12:41:46.120Z,22.00
2023-05-06T12:44:34.722Z,22.00
2023-05-06T12:47:07.750Z,21.90
2023-05-06T12:49:48.407Z,22.40
2023-05-06T12:52:16.737Z,22.20
2023-05-06T12:54:44.636Z,22.30
2023-05-06T12:57:12.609Z,22.60
2023-05-06T12:59:45.781Z,22.00
2023-05-06T13:02:14.260Z,21.60
2023-05-06T13:04:42.468Z,21.80
2023-05-06T13:07:10.214Z,22.10
2023-05-06T13:09:37.866Z,21.80
2023-05-06T13:12:06.478Z,21.90
2023-05-06T13:14:39.216Z,21.90
2023-05-06T13:17:08.677Z,21.70
2023-05-06T13:19:36.669Z,21.70
2023-05-06T13:22:04.433Z,21.70
2023-05-06T13:24:32.471Z,21.60
2023-05-06T13:27:01.254Z,21.40
2023-05-06T13:29:29.848Z,21.20
2023-05-06T13:31:57.863Z,21.10
2023-05-06T13:34:26.216Z,21.10
2023-05-06T13:36:57.142Z,21.00
2023-05-06T13:39:25.387Z,21.00
2023-05-06T13:41:54.133Z,21.00
2023-05-06T13:44:22.245Z,20.90
2023-05-06T13:46:49.943Z,20.90
2023-05-06T13:49:18.688Z,20.70
2023-05-06T13:51:46.420Z,20.80
2023-05-06T13:54:14.213Z,21.00
2023-05-06T13:56:41.941Z,21.30
2023-05-06T13:59:11.775Z,21.20
2023-05-06T14:01:39.932Z,21.00
2023-05-06T14:04:08.010Z,20.90
2023-05-06T14:06:35.652Z,20.80
2023-05-06T14:09:04.613Z,20.90
2023-05-06T14:11:32.370Z,21.00
2023-05-06T14:14:00.452Z,21.40
2023-05-06T14:16:28.251Z,21.80
2023-05-06T14:18:56.069Z,21.50
2023-05-06T14:21:23.910Z,21.20
2023-05-06T14:23:51.797Z,21.10
2023-05-06T14:26:19.550Z,21.10
2023-05-06T14:28:47.470Z,20.90
2023-05-06T14:31:15.097Z,21.00
2023-05-06T14:33:42.762Z,21.10
2023-05-06T14:36:10.466Z,20.90
2023-05-06T14:38:38.133Z,20.90
2023-05-06T14:41:06.030Z,20.90
2023-05-06T14:43:33.735Z,20.50
2023-05-06T14:46:01.475Z,20.60
2023-05-06T14:48:29.244Z,20.70
2023-05-06T14:50:57.168Z,20.50
2023-05-06T14:53:24.848Z,20.40
2023-05-06T14:55:52.623Z,20.00
2023-05-06T14:58:20.799Z,19.80
2023-05-06T15:00:48.414Z,19.80
2023-05-06T15:03:16.146Z,19.80
2023-05-06T15:05:43.840Z,19.90
2023-05-06T15:08:11.614Z,20.10
2023-05-06T15:10:39.898Z,20.40
2023-05-06T15:13:08.253Z,20.40
2023-05-06T15:15:35.996Z,20.30
2023-05-06T15:18:03.725Z,20.10
2023-05-06T15:20:31.436Z,19.80
2023-05-06T15:22:59.573Z,19.70
2023-05-06T15:25:34.990Z,19.50
2023-05-06T15:28:05.238Z,19.40
2023-05-06T15:30:32.978Z,19.30
2023-05-06T15:33:02.746Z,19.10
2023-05-06T15:35:31.593Z,19.10
2023-05-06T15:37:59.550Z,19.10
2023-05-06T15:40:27.540Z,19.00
2023-05-06T15:42:55.480Z,18.90
2023-05-06T15:45:23.296Z,19.00
2023-05-06T15:47:51.330Z,19.00
2023-05-06T15:50:31.973Z,19.00
2023-05-06T15:53:02.344Z,19.10
2023-05-06T15:55:35.312Z,19.10
2023-05-06T15:58:11.482Z,19.10
2023-05-06T16:00:39.158Z,19.10
2023-05-06T16:03:09.829Z,19.10
2023-05-06T16:05:39.848Z,19.20
2023-05-06T16:08:08.406Z,19.10
2023-05-06T16:10:36.086Z,19.10
2023-05-06T16:13:03.894Z,19.10
2023-05-06T16:15:31.604Z,19.20
2023-05-06T16:17:59.394Z,19.40
2023-05-06T16:20:27.190Z,19.50
2023-05-06T16:22:54.777Z,19.40
2023-05-06T16:25:23.592Z,19.20
2023-05-06T16:27:51.290Z,19.00
2023-05-06T16:30:19.061Z,18.70
2023-05-06T16:32:46.954Z,18.60
2023-05-06T16:35:15.893Z,18.60
2023-05-06T16:37:45.331Z,18.60
2023-05-06T16:40:15.100Z,18.50
2023-05-06T16:42:43.023Z,18.50
2023-05-06T16:45:11.665Z,18.50
2023-05-06T16:47:39.532Z,18.50
2023-05-06T16:50:08.266Z,18.40
2023-05-06T16:52:36.283Z,18.30
2023-05-06T16:55:04.313Z,18.20
2023-05-06T16:57:33.387Z,18.20
2023-05-06T17:00:02.036Z,18.20
2023-05-06T17:02:30.099Z,18.20
2023-05-06T17:04:59.277Z,18.20
2023-05-06T17:07:26.998Z,18.20
2023-05-06T17:09:54.716Z,18.10
2023-05-06T17:12:23.900Z,18.00
2023-05-06T17:14:51.601Z,17.90
2023-05-06T17:17:21.435Z,17.80
2023-05-06T17:19:50.134Z,17.70
2023-05-06T17:22:17.768Z,17.60
2023-05-06T17:24:45.896Z,17.40
2023-05-06T17:27:13.590Z,17.20
2023-05-06T17:29:41.288Z,17.10
2023-05-06T17:32:09.972Z,16.90
2023-05-06T17:34:38.015Z,16.80
2023-05-06T17:37:07.033Z,16.70
2023-05-06T17:39:34.793Z,16.70
2023-05-06T17:42:03.468Z,16.60
2023-05-06T17:44:31.603Z,16.50
2023-05-06T17:46:59.590Z,16.40
2023-05-06T17:49:27.405Z,16.30
2023-05-06T17:51:56.091Z,16.20
2023-05-06T17:54:23.964Z,16.20
2023-05-06T17:56:53.056Z,16.10
2023-05-06T17:59:21.430Z,16.00
2023-05-06T18:01:49.261Z,15.90
2023-05-06T18:04:17.223Z,15.90
2023-05-06T18:06:46.481Z,15.80
2023-05-06T18:09:15.280Z,15.70
2023-05-06T18:11:44.601Z,15.70
2023-05-06T18:14:12.315Z,15.60
2023-05-06T18:16:40.189Z,15.50
2023-05-06T18:19:07.995Z,15.50
2023-05-06T18:21:36.049Z,15.30
2023-05-06T18:24:15.233Z,15.00
2023-05-06T18:26:46.020Z,14.80
2023-05-06T18:29:14.151Z,14.70
2023-05-06T18:31:42.824Z,14.60
2023-05-06T18:34:10.867Z,14.50
2023-05-06T18:36:38.881Z,14.40
2023-05-06T18:39:07.191Z,14.30
2023-05-06T18:41:35.089Z,14.20
2023-05-06T18:44:04.339Z,14.20
2023-05-06T18:46:32.150Z,14.00
2023-05-06T18:49:00.984Z,14.00
2023-05-06T18:51:28.978Z,13.90
2023-05-06T18:53:57.154Z,13.90
2023-05-06T18:56:24.851Z,13.80
2023-05-06T18:58:52.889Z,13.80
2023-05-06T19:01:20.658Z,13.70
2023-05-06T19:03:48.429Z,13.60
2023-05-06T19:06:16.149Z,13.60
2023-05-06T19:08:43.897Z,13.40
2023-05-06T19:11:16.107Z,13.40
2023-05-06T19:13:44.940Z,13.50
2023-05-06T19:16:15.914Z,13.40
2023-05-06T19:18:44.042Z,13.30
2023-05-06T19:21:13.469Z,13.30
2023-05-06T19:23:41.733Z,13.30
2023-05-06T19:26:12.316Z,13.20
2023-05-06T19:28:40.837Z,13.10
2023-05-06T19:31:09.761Z,13.10
2023-05-06T19:33:38.971Z,13.10
2023-05-06T19:36:06.966Z,13.00
2023-05-06T19:38:34.948Z,12.90
2023-05-06T19:41:03.012Z,13.00
2023-05-06T19:43:31.102Z,13.00
2023-05-06T19:45:58.871Z,12.90
2023-05-06T19:48:26.751Z,12.90
2023-05-06T19:50:54.605Z,13.00
2023-05-06T19:53:23.990Z,12.80
2023-05-06T19:55:55.984Z,12.60
2023-05-06T19:58:23.756Z,12.40
2023-05-06T20:00:51.763Z,12.40
2023-05-06T20:03:19.583Z,12.30
2023-05-06T20:05:47.302Z,12.40
2023-05-06T20:08:15.083Z,12.40
2023-05-06T20:10:42.803Z,12.50
2023-05-06T20:13:12.113Z,12.40
2023-05-06T20:15:42.372Z,12.20
2023-05-06T20:18:10.217Z,12.00
2023-05-06T20:20:39.979Z,12.00
2023-05-06T20:23:07.849Z,12.10
2023-05-06T20:25:37.405Z,12.10
2023-05-06T20:28:06.821Z,12.00
2023-05-06T20:30:34.701Z,11.90
2023-05-06T20:33:02.601Z,11.70
2023-05-06T20:35:30.945Z,11.40
2023-05-06T20:38:02.007Z,11.40
2023-05-06T20:40:29.768Z,11.30
2023-05-06T20:42:57.498Z,11.30
2023-05-06T20:45:25.374Z,11.30
2023-05-06T20:47:53.102Z,11.20
2023-05-06T20:50:21.154Z,11.10
2023-05-06T20:52:48.860Z,11.10
2023-05-06T20:55:16.678Z,11.10
2023-05-06T20:57:44.834Z,11.20
2023-05-06T21:00:13.124Z,11.20
2023-05-06T21:02:42.127Z,11.20
2023-05-06T21:05:11.006Z,11.20
2023-05-06T21:07:39.200Z,11.10
2023-05-06T21:10:07.347Z,10.90
2023-05-06T21:12:35.249Z,10.80
2023-05-06T21:15:03.129Z,10.80
2023-05-06T21:17:35.688Z,10.70
2023-05-06T21:20:04.938Z,10.60
2023-05-06T21:22:34.288Z,10.60
2023-05-06T21:25:01.928Z,10.40
2023-05-06T21:27:29.713Z,10.40
2023-05-06T21:29:57.754Z,10.40
2023-05-06T21:32:25.802Z,10.30
2023-05-06T21:34:53.586Z,10.30
2023-05-06T21:37:21.377Z,10.30
2023-05-06T21:39:49.015Z,10.20
2023-05-06T21:42:16.694Z,10.10
2023-05-06T21:44:44.366Z,10.00
2023-05-06T21:47:12.201Z,10.00
2023-05-06T21:49:39.915Z,10.10
2023-05-06T21:52:07.663Z,10.10
2023-05-06T21:54:36.525Z,10.10
2023-05-06T21:57:08.063Z,10.10
2023-05-06T21:59:36.286Z,10.10
2023-05-06T22:02:04.445Z,10.10
2023-05-06T22:04:32.337Z,10.10
2023-05-06T22:07:00.265Z,10.00
2023-05-06T22:09:28.349Z,9.90
2023-05-06T22:11:56.077Z,9.70
2023-05-06T22:14:27.010Z,9.70
2023-05-06T22:16:58.339Z,9.70
2023-05-06T22:19:27.966Z,9.60
2023-05-06T22:21:55.753Z,9.50
2023-05-06T22:24:23.731Z,9.50
2023-05-06T22:26:51.494Z,9.50
2023-05-06T22:29:19.293Z,9.60
2023-05-06T22:31:47.109Z,9.40
2023-05-06T22:34:14.929Z,9.40
2023-05-06T22:36:42.703Z,9.40
2023-05-06T22:39:10.457Z,9.40
2023-05-06T22:41:38.444Z,9.30
2023-05-06T22:44:06.414Z,9.30
2023-05-06T22:46:34.712Z,9.30
2023-05-06T22:49:06.349Z,9.30
2023-05-06T22:51:34.509Z,9.40
2023-05-06T22:54:02.288Z,9.50
2023-05-06T22:56:29.989Z,9.50
2023-05-06T22:58:57.729Z,9.40
2023-05-06T23:01:26.267Z,9.40
2023-05-06T23:03:54.090Z,9.30
2023-05-06T23:06:21.859Z,9.20
2023-05-06T23:08:49.532Z,9.30
2023-05-06T23:11:17.239Z,9.30
2023-05-06T23:13:44.957Z,9.30
2023-05-06T23:16:12.808Z,9.20
2023-05-06T23:18:41.079Z,9.20
2023-05-06T23:21:09.436Z,9.10
2023-05-06T23:23:38.126Z,9.10
2023-05-06T23:26:06.073Z,9.10
2023-05-06T23:28:33.888Z,9.00
2023-05-06T23:31:01.537Z,9.10
2023-05-06T23:33:29.285Z,9.10
2023-05-06T23:35:59.890Z,9.20
2023-05-06T23:38:27.653Z,9.10
2023-05-06T23:40:55.820Z,9.00
2023-05-06T23:43:23.562Z,9.00
2023-05-06T23:45:51.644Z,9.00
2023-05-06T23:48:19.369Z,8.90
2023-05-06T23:50:47.163Z,8.90
2023-05-06T23:53:14.869Z,8.80
2023-05-06T23:55:43.147Z,8.90
2023-05-06T23:58:11.073Z,8.90
